Latest Coastal Weather Observations for Cerberus

IDV60701

Issued at 7:33 pm EDT Saturday 31 January 2015 (issued every 10 minutes, with the page automatically refreshed every 10 minutes)

About coastal observations | Map of coastal stations | Coastal observations for VIC | Marine services | Other Formats
Station Details ID: 086361 Name: CERBERUS Lat: -38.36 Lon: 145.18 Height: 12.69 m
Data from the previous 72 hours. | See also: Recent months at Cerberus
Date/Time
EDT
Temp

°C
Wind Pressure Rain
since 9am
mm
Weather Cloud Vis
km
Sea
Height
m
Swell
Dir
 
Speed
knots
Gust
knots
hPa Trend Height
m
Period
s
Dir
31/07:30pm 17.1 SW 10 16 1011.9 - 0.0 - - - - - - -
31/07:00pm 16.9 SW 11 16 1011.8 - 0.0 - - - - - - -
31/06:30pm 17.4 SW 11 17 1011.7 - 0.0 - - - - - - -
31/06:00pm 17.9 SW 10 19 1011.5 - 0.0 - - - - - - -
31/05:30pm 18.4 SW 9 15 1011.5 - 0.0 - - - - - - -
31/05:00pm 18.5 SW 13 19 1011.4 - 0.0 - - - - - - -
31/04:30pm 19.6 SW 12 19 1011.5 - 0.0 - - - - - - -
31/04:00pm 19.8 SW 14 20 1011.5 - 0.0 - - - - - - -
31/03:30pm 19.2 SW 15 22 1011.5 - 0.0 - - - - - - -
31/03:00pm 20.1 SW 13 21 1011.3 - 0.0 - - - - - - -
31/02:30pm 19.2 SW 14 20 1011.4 - 0.0 - - - - - - -
31/02:00pm 18.9 SSW 13 20 1011.5 - 0.0 - - - - - - -
31/01:30pm 18.6 SW 15 19 1011.7 - 0.0 - - - - - - -
31/01:00pm 19.3 SSW 13 20 1011.9 - 0.0 - - - - - - -
31/12:30pm 18.7 SSW 12 18 1012.0 - 0.0 - - - - - - -
31/12:00pm 17.9 SSW 10 17 1011.8 - 0.0 - - - - - - -
31/11:30am 17.5 SW 11 16 1011.8 - 0.0 - - - - - - -
31/11:00am 17.2 SW 10 14 1011.6 - 0.0 - - - - - - -
31/10:30am 17.3 SW 10 16 1011.6 - 0.0 - - - - - - -
31/10:00am 17.5 SW 10 13 1011.3 - 0.0 - - - - - - -
31/09:30am 17.9 SW 11 16 1011.3 - 0.0 - - - - - - -
31/09:00am 17.9 SW 11 16 1011.1 - 0.0 - - - - - - -
31/08:30am 17.3 SW 9 13 1011.1 - 0.0 - - - - - - -
31/08:00am 16.6 SW 7 13 1011.0 - 0.0 - - - - - - -
31/07:30am 14.6 W 4 5 1010.9 - 0.0 - - - - - - -
31/07:00am 12.8 WNW 3 4 1010.9 - 0.0 - - - - - - -
31/06:30am 11.8 WNW 4 6 1010.7 - 0.0 - - - - - - -
31/06:00am 11.9 NW 3 3 1010.6 - 0.0 - - - - - - -
31/05:30am 11.8 NW 4 5 1010.5 - 0.0 - - - - - - -
31/05:00am 12.4 W 3 4 1010.6 - 0.0 - - - - - - -
31/04:30am 12.9 W 3 5 1010.7 - 0.0 - - - - - - -
31/04:00am 13.2 W 3 5 1010.8 - 0.0 - - - - - - -
31/03:30am 13.4 W 4 5 1011.2 - 0.0 - - - - - - -
31/03:00am 13.8 W 3 4 1011.3 - 0.0 - - - - - - -
31/02:30am 14.5 W 3 5 1011.5 - 0.0 - - - - - - -
31/02:00am 15.3 SW 5 8 1011.9 - 0.0 - - - - - - -
31/01:30am 15.7 SSW 6 9 1012.1 - 0.0 - - - - - - -
31/01:00am 14.6 SW 4 9 1012.3 - 0.0 - - - - - - -
31/12:30am 13.1 W 2 3 1012.5 - 0.0 - - - - - - -
31/12:00am 13.3 W 3 4 1012.7 - 0.0 - - - - - - -
 
Date/Time
EDT
Temp

°C
Wind Pressure Rain
since 9am
mm
Weather Cloud Vis
km
Sea
Height
m
Swell
Dir
 
Speed
knots
Gust
knots
hPa Trend Height
m
Period
s
Dir
30/11:30pm 13.3 W 3 5 1012.9 - 0.0 - - - - - - -
30/11:00pm 12.7 W 2 3 1013.2 - 0.0 - - - - - - -
30/10:30pm 13.4 W 2 4 1013.3 - 0.0 - - - - - - -
30/10:00pm 14.4 SW 3 5 1013.5 - 0.0 - - - - - - -
30/09:30pm 14.8 SW 4 5 1013.4 - 0.0 - - - - - - -
30/09:00pm 15.1 SSW 5 7 1013.3 - 0.0 - - - - - - -
30/08:30pm 15.7 SSW 6 9 1013.6 - 0.0 - - - - - - -
30/08:00pm 16.4 SSW 7 12 1013.6 - 0.0 - - - - - - -
30/07:30pm 17.5 SSW 9 13 1013.6 - 0.0 - - - - - - -
30/07:00pm 18.3 S 8 12 1013.5 - 0.0 - - - - - - -
30/06:30pm 17.7 S 9 15 1013.6 - 0.0 - - - - - - -
30/06:00pm 18.4 SSW 10 16 1013.7 - 0.0 - - - - - - -
30/05:30pm 18.7 S 10 16 1013.9 - 0.0 - - - - - - -
30/05:00pm 18.6 SSE 10 15 1014.1 - 0.0 - - - - - - -
30/04:30pm 18.4 S 10 14 1014.3 - 0.0 - - - - - - -
30/04:00pm 18.2 SSE 9 15 1014.5 - 0.0 - - - - - - -
30/03:30pm 18.7 S 11 18 1014.7 - 0.0 - - - - - - -
30/03:00pm 19.0 SSW 12 19 1014.9 - 0.0 - - - - - - -
30/02:30pm 19.3 SSW 11 17 1015.2 - 0.0 - - - - - - -
30/02:00pm 19.3 SSW 11 18 1015.4 - 0.0 - - - - - - -
30/01:30pm 19.5 SSW 10 15 1015.7 - 0.0 - - - - - - -
30/01:00pm 19.0 SSW 10 15 1015.9 - 0.0 - - - - - - -
30/12:30pm 18.5 SSW 9 14 1016.0 - 0.0 - - - - - - -
30/12:00pm 18.8 S 9 15 1016.1 - 0.0 - - - - - - -
30/11:30am 18.8 SSE 7 13 1016.4 - 0.0 - - - - - - -
30/11:00am 17.6 SSE 8 13 1016.6 - 0.0 - - - - - - -
30/10:30am 17.9 SE 7 12 1016.8 - 0.0 - - - - - - -
30/10:00am 17.3 S 5 7 1016.8 - 0.0 - - - - - - -
30/09:30am 17.0 SSE 4 7 1016.8 - 0.0 - - - - - - -
30/09:00am 16.4 SSE 5 9 1016.9 - 2.0 - - - - - - -
30/08:30am 15.2 CALM 0 0 1016.7 - 2.0 - - - - - - -
30/08:00am 14.6 NW 1 2 1016.6 - 2.0 - - - - - - -
30/07:30am 13.7 WSW 2 3 1016.3 - 2.0 - - - - - - -
30/07:00am 13.4 SSE 2 3 1016.4 - 1.8 - - - - - - -
30/06:30am 13.3 E 1 3 1016.4 - 1.8 - - - - - - -
30/06:00am 13.2 E 1 3 1016.4 - 1.8 - - - - - - -
30/05:30am 13.2 NE 1 3 1016.3 - 1.8 - - - - - - -
30/05:00am 13.2 CALM 0 1 1016.2 - 1.8 - - - - - - -
30/04:30am 13.3 ENE 3 4 1016.3 - 1.8 - - - - - - -
30/04:00am 13.5 ENE 3 5 1016.5 - 0.2 - - - - - - -
30/03:30am 13.7 SSE 1 4 1016.8 - 0.0 - - - - - - -
30/03:00am 13.6 SSW 5 9 1017.1 - 0.0 - - - - - - -
30/02:30am 14.9 SE 4 5 1017.2 - 0.0 - - - - - - -
30/02:00am 15.4 ESE 4 7 1017.3 - 0.0 - - - - - - -
30/01:30am 15.4 ESE 7 13 1017.7 - 0.0 - - - - - - -
30/01:00am 15.6 E 4 8 1018.0 - 0.0 - - - - - - -
30/12:30am 15.3 ESE 4 9 1018.4 - 0.0 - - - - - - -
30/12:00am 15.3 ESE 4 7 1018.6 - 0.0 - - - - - - -
 
Date/Time
EDT
Temp

°C
Wind Pressure Rain
since 9am
mm
Weather Cloud Vis
km
Sea
Height
m
Swell
Dir
 
Speed
knots
Gust
knots
hPa Trend Height
m
Period
s
Dir
29/11:30pm 15.5 ESE 4 7 1018.7 - 0.0 - - - - - - -
29/11:00pm 15.8 ESE 5 10 1018.8 - 0.0 - - - - - - -
29/10:30pm 15.8 ESE 4 8 1019.0 - 0.0 - - - - - - -
29/10:00pm 16.0 ESE 4 9 1019.0 - 0.0 - - - - - - -
29/09:30pm 16.4 ESE 7 14 1019.0 - 0.0 - - - - - - -
29/09:00pm 16.6 SE 9 15 1018.7 - 0.0 - - - - - - -
29/08:30pm 16.5 SE 10 17 1018.5 - 0.0 - - - - - - -
29/08:00pm 17.2 SSE 11 17 1018.5 - 0.0 - - - - - - -
29/07:30pm 17.3 SE 10 16 1018.5 - 0.0 - - - - - - -
29/07:00pm 17.7 SSE 13 19 1018.4 - 0.0 - - - - - - -
29/06:30pm 18.9 SE 11 19 1018.3 - 0.0 - - - - - - -
29/06:00pm 18.5 SSE 13 19 1018.3 - 0.0 - - - - - - -
29/05:30pm 18.8 SSE 12 21 1018.6 - 0.0 - - - - - - -
29/05:00pm 19.1 SSE 12 19 1018.9 - 0.0 - - - - - - -
29/04:30pm 19.3 SE 13 20 1019.2 - 0.0 - - - - - - -
29/04:00pm 19.3 SSE 13 21 1019.4 - 0.0 - - - - - - -
29/03:30pm 19.5 SSE 14 22 1019.5 - 0.0 - - - - - - -
29/03:00pm 19.7 SSE 14 22 1019.6 - 0.0 - - - - - - -
29/02:30pm 19.7 SSE 12 22 1019.9 - 0.0 - - - - - - -
29/02:00pm 19.4 SSE 13 20 1020.0 - 0.0 - - - - - - -
29/01:30pm 20.0 SSE 13 20 1020.2 - 0.0 - - - - - - -
29/01:00pm 19.3 SSE 14 20 1020.4 - 0.0 - - - - - - -
29/12:30pm 19.0 SSE 12 18 1020.6 - 0.0 - - - - - - -
29/12:00pm 19.3 SSE 12 18 1020.6 - 0.0 - - - - - - -
29/11:30am 19.8 SE 10 17 1020.8 - 0.0 - - - - - - -
29/11:00am 18.6 SE 11 17 1021.0 - 0.0 - - - - - - -
29/10:30am 18.3 SE 11 18 1021.0 - 0.0 - - - - - - -
29/10:00am 18.4 SE 9 15 1021.0 - 0.0 - - - - - - -
29/09:30am 18.1 SE 8 15 1021.1 - 0.0 - - - - - - -
29/09:00am 17.2 ESE 9 15 1021.1 - 0.0 - - - - - - -
29/08:30am 16.7 ESE 9 15 1020.9 - 0.0 - - - - - - -
29/08:00am 16.4 ESE 7 12 1020.7 - 0.0 - - - - - - -
29/07:30am 15.6 ESE 6 9 1020.7 - 0.0 - - - - - - -
29/07:00am 14.8 ESE 5 9 1020.3 - 0.0 - - - - - - -
29/06:30am 14.6 E 6 13 1020.0 - 0.0 - - - - - - -
29/06:00am 14.2 ESE 4 9 1019.8 - 0.0 - - - - - - -
29/05:30am 14.3 ESE 4 8 1019.6 - 0.0 - - - - - - -
29/05:00am 13.9 ESE 3 6 1019.5 - 0.0 - - - - - - -
29/04:30am 14.6 E 4 10 1019.4 - 0.0 - - - - - - -
29/04:00am 14.6 ESE 5 8 1019.5 - 0.0 - - - - - - -
29/03:30am 14.7 ESE 4 7 1019.6 - 0.0 - - - - - - -
29/03:00am 14.7 ESE 5 9 1019.7 - 0.0 - - - - - - -
29/02:30am 14.9 ESE 5 9 1020.0 - 0.0 - - - - - - -
29/02:00am 15.1 ESE 5 9 1020.1 - 0.0 - - - - - - -
29/01:30am 15.0 ESE 6 9 1020.4 - 0.0 - - - - - - -
29/01:00am 15.1 E 6 12 1020.5 - 0.0 - - - - - - -
29/12:30am 15.2 ESE 5 10 1020.6 - 0.0 - - - - - - -
29/12:00am 15.4 ESE 6 10 1020.6 - 0.0 - - - - - - -
 
Date/Time
EDT
Temp

°C
Wind Pressure Rain
since 9am
mm
Weather Cloud Vis
km
Sea
Height
m
Swell
Dir
 
Speed
knots
Gust
knots
hPa Trend Height
m
Period
s
Dir
28/11:30pm 15.7 ESE 7 12 1020.6 - 0.0 - - - - - - -
28/11:00pm 15.9 ESE 6 11 1020.7 - 0.0 - - - - - - -
28/10:30pm 16.3 ESE 9 16 1020.6 - 0.0 - - - - - - -
28/10:00pm 16.8 SE 11 19 1020.5 - 0.0 - - - - - - -
28/09:30pm 17.1 SE 10 17 1020.2 - 0.0 - - - - - - -
28/09:00pm 17.4 SE 10 15 1019.9 - 0.0 - - - - - - -
28/08:30pm 17.9 SE 9 15 1019.5 - 0.0 - - - - - - -
28/08:00pm 18.0 SE 11 16 1019.4 - 0.0 - - - - - - -

Other Formats:

Comma delimited format used in spreadsheet applications
http://www.bom.gov.au/fwo/IDV60701/IDV60701.94898.axf

JavaScript Object Notation format (JSON) in row-major order
http://www.bom.gov.au/fwo/IDV60701/IDV60701.94898.json